Terminal Aerodrome Forecast
Issued by NWS Cleveland, OH

Home | Current Version | Previous Version | Graphics & Text | Print | Product List | Glossary On
Versions: 1 2 3 4 5 6 7 8 9 10 11 12 13 14 15 16 17 18 19 20 21 22 23 24 25 26 27
412
FTUS41 KCLE 230252 AAA
TAFCLE
TAF AMD
KCLE 230252Z 2303/2406 18004KT P6SM BKN150 OVC250
     FM231000 25005KT P6SM BKN150 OVC250
     FM231400 35008KT P6SM SCT040 BKN100
     FM232100 03010KT P6SM BKN040 OVC100=

USA.gov is the U.S. government's official web portal to all federal, state and local government web resources and services.